aviador You're here:

PAPB Decoded Metar

POINT BARROW in AK, USA
Report Time2017-10-19 07:53:00
UTC Time2017-10-19 08:45:15
Flight Rules vfr VFR
Wind320° at 08 kt
W.Decomp.*RWY 29: 7.6 kt HW 2.6 kt RCW
W.Rank320° ranks 12
Current wind is below 320° avg. (12.5)
Visibility9999 m
Phenomena:N/A
Clouds:Few 030 Hf
Scattered 039 Hf
Expected CloudBase > 400 ft AGL from Temp-Dew spread
CeilingNone
Temp02°C (ISA -13)
Dew Point01°C (93% RH)
AAT-2.7°C
QNH1015 hPa
Density Alt-1,417 ft
Elevation115 ft
Report Wrong Elevation
Raw Report
PAPB 190753Z AUTO 32008KT 10SM FEW030 SCT039 02/01 A2998 RMK AO2
SLP142 T00220006 TSNO=

Extra information for PAPB:More info

Metar Taf Metar & Taf Last 4 Metars F.Rules Stats Wind Profile Meteogram Temp Stats Airport Information Weather charts Add Link Nearby VenuesMetar ALERT Operation Metar Decoded Social comments

AIRNAV info for PAPB